Impacts TAF Board
For situational awareness. Not to be used for flight planning purposes.
IDs:

KPHL - Philadelphia Intl, PA, US

Issued at 0817 UTC 27 Feb 2020
Updated at 0857 UTC 27 Feb 2020
Potential Impact None Slight Moderate High
Time<<27/21Z 27/22Z 27/23Z 28/00Z 28/01Z 28/02Z 28/03Z 28/04Z 28/05Z 28/06Z 28/07Z 28/08Z 28/09Z>>
Type PRVL PRVL PRVL PRVL PRVL PRVL PRVL PRVL PRVL PRVL PRVL PRVL PRVL
VIS >6 >6 >6 >6 >6 >6 >6 >6 >6 >6 >6 >6 >6
CIG -- -- -- -- -- -- -- -- -- -- -- -- --
Cover SCT SCT SCT FEW FEW FEW FEW FEW FEW FEW FEW FEW FEW
FltCat VFR VFR VFR VFR VFR VFR VFR VFR VFR VFR VFR VFR VFR
WX -- -- -- -- -- -- -- -- -- -- -- -- --
WDir 280 280 280 270 270 270 270 270 270 270 270 270 270
WSpd 20 20 20 16 16 16 16 16 16 16 16 16 16
WGst 32 32 32 27 27 27 27 27 27 27 27 27 27
Raw TAF
KPHL 270817Z 2708/2812 28015G27KT P6SM BKN040
  FM271200 28020G32KT P6SM SCT030
  FM280000 27016G27KT P6SM FEW040


METAR Board
Radar Display
Forecast Discussion
For situational awareness. Not to be used for flight planning purposes.